Terminal Aerodrome Forecast
Issued by NWS

Home | Current Version | Previous Version | Text Only | Print | Product List | Glossary On
Versions: 1 2 3 4 5 6 7 8 9 10 11 12 13 14
000
FTUS42 KTBW 221100
TAFPGD
TAF
KPGD 221133Z 2212/2312 15008KT P6SM FEW025 SCT120
     FM221400 18012KT P6SM SCT020 BKN040 OVC100
     FM230100 17004KT 6SM BR SCT015 BKN100=

USA.gov is the U.S. government's official web portal to all federal, state and local government web resources and services.